Time;durP1;ratioP1;P1;durP2;ratioP2;P2;SDS_P1;SDS_P2;PMS_P1;PMS_P2;Temp;Humidity;BMP_temperature;BMP_pressure;BME280_temperature;BME280_humidity;BME280_pressure;Samples;Min_cycle;Max_cycle;Signal;HPM_P1;HPM_P2
2024/01/05 00:02:24;;;;;;;3.30;1.50;;;3.10;99.90;;;;;;4997457;28;20259;-77
2024/01/05 00:04:51;;;;;;;4.20;2.05;;;3.10;99.90;;;;;;4997737;28;20220;-77
2024/01/05 00:07:17;;;;;;;1.80;1.70;;;3.10;99.90;;;;;;4998084;28;20216;-77
2024/01/05 00:09:44;;;;;;;4.00;1.95;;;3.10;99.90;;;;;;4999756;28;20230;-77
2024/01/05 00:12:11;;;;;;;1.60;1.50;;;3.10;99.90;;;;;;4999471;28;20232;-77
2024/01/05 00:14:38;;;;;;;3.78;1.90;;;3.10;99.90;;;;;;5000091;28;20733;-77
2024/01/05 00:17:06;;;;;;;7.25;1.70;;;3.10;99.90;;;;;;4998606;28;20209;-78
2024/01/05 00:19:33;;;;;;;2.45;1.95;;;3.10;99.90;;;;;;4999449;28;20591;-78
2024/01/05 00:21:59;;;;;;;1.65;1.10;;;3.10;99.90;;;;;;4998442;28;20720;-77
2024/01/05 00:24:26;;;;;;;2.33;1.23;;;3.10;99.90;;;;;;4998553;28;20209;-78
2024/01/05 00:26:53;;;;;;;1.70;1.45;;;3.10;99.90;;;;;;4998450;28;20217;-78
2024/01/05 00:29:20;;;;;;;1.30;1.20;;;3.00;99.90;;;;;;4997469;28;20294;-78
2024/01/05 00:31:46;;;;;;;1.67;1.42;;;3.00;99.90;;;;;;4997832;28;20230;-78
2024/01/05 00:34:14;;;;;;;1.95;1.85;;;3.00;99.90;;;;;;4997814;28;20217;-78
2024/01/05 00:36:41;;;;;;;5.60;2.35;;;3.00;99.90;;;;;;4997912;28;20596;-77
2024/01/05 00:39:08;;;;;;;3.17;1.98;;;3.00;99.90;;;;;;4997437;28;20205;-78
2024/01/05 00:41:34;;;;;;;4.13;1.85;;;2.90;99.90;;;;;;4996874;28;20235;-78
2024/01/05 00:44:01;;;;;;;2.20;1.75;;;2.90;99.90;;;;;;4997551;28;20265;-77
2024/01/05 00:46:28;;;;;;;1.73;1.63;;;2.90;99.90;;;;;;4997147;28;20297;-78
2024/01/05 00:48:55;;;;;;;1.38;1.27;;;3.00;99.90;;;;;;4996368;28;20227;-77
2024/01/05 00:51:23;;;;;;;2.80;1.25;;;3.10;99.90;;;;;;4997069;28;20291;-78
2024/01/05 00:53:49;;;;;;;2.25;1.10;;;3.20;99.90;;;;;;4996595;28;20210;-78
2024/01/05 00:56:16;;;;;;;4.18;1.40;;;3.30;99.90;;;;;;4997043;28;20698;-78
2024/01/05 00:58:43;;;;;;;2.35;1.25;;;3.40;99.90;;;;;;4997004;28;20221;-78
2024/01/05 01:01:09;;;;;;;1.48;1.38;;;3.60;99.90;;;;;;4997098;28;20260;-77
2024/01/05 01:03:36;;;;;;;4.25;1.85;;;3.70;99.90;;;;;;4997482;28;20203;-77
2024/01/05 01:06:04;;;;;;;3.95;1.38;;;3.70;99.90;;;;;;4996777;28;20219;-78
2024/01/05 01:08:32;;;;;;;1.52;1.15;;;3.80;99.90;;;;;;4996743;28;20215;-78
2024/01/05 01:11:00;;;;;;;4.45;2.17;;;3.80;99.90;;;;;;4996373;28;20727;-77
2024/01/05 01:13:27;;;;;;;4.30;1.58;;;3.80;99.90;;;;;;4996376;28;20618;-77
2024/01/05 01:15:53;;;;;;;3.20;1.50;;;3.80;99.90;;;;;;4996688;28;20214;-78
2024/01/05 01:18:20;;;;;;;3.47;1.30;;;3.90;99.90;;;;;;4996778;28;20210;-77
2024/01/05 01:20:47;;;;;;;1.40;1.20;;;3.90;99.90;;;;;;4997319;28;20210;-78
2024/01/05 01:23:14;;;;;;;1.83;1.15;;;4.00;99.90;;;;;;4996663;28;20218;-78
2024/01/05 01:25:42;;;;;;;3.28;1.33;;;4.00;99.90;;;;;;4996795;28;20218;-77
2024/01/05 01:28:09;;;;;;;1.35;1.25;;;4.10;99.90;;;;;;4996127;28;20214;-78
2024/01/05 01:30:35;;;;;;;4.03;2.15;;;4.10;99.90;;;;;;4996728;28;20293;-78
2024/01/05 01:33:02;;;;;;;1.92;1.83;;;4.10;99.90;;;;;;4995922;28;20216;-77
2024/01/05 01:35:29;;;;;;;1.23;1.05;;;4.10;99.90;;;;;;4996248;28;20585;-77
2024/01/05 01:37:56;;;;;;;1.73;1.40;;;4.10;99.90;;;;;;4995675;28;20226;-78
2024/01/05 01:40:23;;;;;;;2.85;1.50;;;4.10;99.90;;;;;;4995997;28;20211;-78
2024/01/05 01:42:51;;;;;;;2.53;1.63;;;4.00;99.90;;;;;;4995318;28;20230;-77
2024/01/05 01:45:18;;;;;;;3.20;1.40;;;4.00;99.90;;;;;;4994289;28;20310;-77
2024/01/05 01:47:45;;;;;;;3.67;1.50;;;4.00;99.90;;;;;;4994549;28;20781;-77
2024/01/05 01:50:13;;;;;;;2.10;1.60;;;4.00;99.90;;;;;;4994391;28;20609;-77
2024/01/05 01:52:43;;;;;;;3.40;2.00;;;3.90;99.90;;;;;;4994752;28;20720;-78
2024/01/05 01:55:11;;;;;;;1.73;1.35;;;3.90;99.90;;;;;;4995146;28;20561;-78
2024/01/05 01:57:38;;;;;;;1.42;1.10;;;3.90;99.90;;;;;;4995114;28;20688;-77
2024/01/05 02:00:09;;;;;;;2.55;1.45;;;3.90;99.90;;;;;;4994901;28;20577;-77
2024/01/05 02:02:36;;;;;;;3.05;2.17;;;3.90;99.90;;;;;;4995062;28;20223;-78
2024/01/05 02:05:05;;;;;;;2.58;1.55;;;3.90;99.90;;;;;;4995498;28;20212;-77
2024/01/05 02:07:32;;;;;;;2.35;1.35;;;3.90;99.90;;;;;;4995258;28;20237;-77
2024/01/05 02:09:58;;;;;;;1.42;1.02;;;3.80;99.90;;;;;;4998500;28;20227;-77
2024/01/05 02:12:25;;;;;;;5.82;1.70;;;3.90;99.90;;;;;;5003600;28;20235;-77
2024/01/05 02:14:52;;;;;;;5.75;2.55;;;3.80;99.90;;;;;;5001383;28;20209;-77
2024/01/05 02:17:30;;;;;;;1.20;1.08;;;3.80;99.90;;;;;;4996973;28;20560;-77
2024/01/05 02:19:57;;;;;;;2.22;1.35;;;3.80;99.90;;;;;;4996259;28;20212;-77
2024/01/05 02:22:27;;;;;;;1.40;1.10;;;3.70;99.90;;;;;;4995994;28;20238;-78
2024/01/05 02:24:57;;;;;;;6.28;1.45;;;3.70;99.90;;;;;;4996338;28;20217;-78
2024/01/05 02:27:23;;;;;;;7.28;1.40;;;3.70;99.90;;;;;;4996384;28;20237;-77
2024/01/05 02:29:50;;;;;;;2.58;1.65;;;3.70;99.90;;;;;;4996243;28;20229;-77
2024/01/05 02:32:18;;;;;;;2.55;1.05;;;3.80;99.90;;;;;;4995123;28;20276;-77
2024/01/05 02:34:44;;;;;;;2.75;1.30;;;3.90;99.90;;;;;;4995725;28;20213;-77
2024/01/05 02:37:11;;;;;;;2.75;1.13;;;4.00;99.90;;;;;;4995169;28;20212;-77
2024/01/05 02:39:38;;;;;;;1.10;0.90;;;4.10;99.90;;;;;;4995669;28;20213;-77
2024/01/05 02:42:06;;;;;;;1.42;1.33;;;4.30;99.90;;;;;;4994509;28;20325;-77
2024/01/05 02:44:33;;;;;;;1.02;0.93;;;4.40;99.90;;;;;;4996228;28;20220;-77
2024/01/05 02:47:00;;;;;;;1.40;1.05;;;4.60;99.90;;;;;;4995280;28;20221;-77
2024/01/05 02:49:26;;;;;;;1.10;1.00;;;4.60;99.90;;;;;;4995412;28;20213;-77
2024/01/05 02:51:53;;;;;;;1.10;0.88;;;4.70;99.90;;;;;;4995438;28;20238;-77
2024/01/05 02:54:20;;;;;;;2.60;1.30;;;4.90;99.90;;;;;;4995681;28;20215;-77
2024/01/05 02:56:46;;;;;;;4.30;1.23;;;5.00;99.90;;;;;;4995765;28;20227;-77
2024/01/05 02:59:15;;;;;;;2.08;1.45;;;4.90;99.90;;;;;;4995245;28;20211;-77
2024/01/05 03:01:42;;;;;;;5.53;1.38;;;5.00;99.90;;;;;;4995673;28;20231;-77
2024/01/05 03:04:10;;;;;;;1.38;1.10;;;5.10;99.90;;;;;;4995621;28;20217;-78
2024/01/05 03:06:37;;;;;;;0.90;0.80;;;5.10;99.90;;;;;;4996388;28;20302;-78
2024/01/05 03:09:05;;;;;;;1.13;1.02;;;5.10;99.90;;;;;;4996883;28;20214;-77
2024/01/05 03:11:32;;;;;;;1.20;1.10;;;5.10;99.90;;;;;;4995704;28;20246;-77
2024/01/05 03:13:58;;;;;;;2.03;1.83;;;5.20;99.90;;;;;;4996520;28;20213;-77
2024/01/05 03:16:26;;;;;;;2.63;1.33;;;5.20;99.90;;;;;;4996809;28;20210;-78
2024/01/05 03:18:53;;;;;;;1.75;0.90;;;5.20;99.90;;;;;;4997326;28;20219;-78
2024/01/05 03:21:20;;;;;;;2.78;1.73;;;5.30;99.90;;;;;;5000884;28;20227;-78
2024/01/05 03:23:47;;;;;;;1.30;0.98;;;5.30;99.90;;;;;;5003476;28;20672;-77
2024/01/05 03:26:13;;;;;;;1.40;1.00;;;5.30;99.90;;;;;;5004249;28;20207;-77
2024/01/05 03:28:40;;;;;;;2.28;1.00;;;5.40;99.90;;;;;;5006683;28;20207;-77
2024/01/05 03:31:12;;;;;;;0.95;0.82;;;5.30;99.90;;;;;;5006692;28;20243;-77
2024/01/05 03:33:40;;;;;;;1.33;1.05;;;5.40;99.90;;;;;;5008995;28;20230;-77
2024/01/05 03:36:08;;;;;;;1.95;1.15;;;5.40;99.90;;;;;;5008009;28;20211;-77
2024/01/05 03:38:34;;;;;;;1.27;1.10;;;5.40;99.90;;;;;;5005513;28;20230;-78
2024/01/05 03:41:01;;;;;;;1.42;1.20;;;5.40;99.90;;;;;;5006835;28;20257;-77
2024/01/05 03:43:29;;;;;;;1.20;1.10;;;5.40;99.90;;;;;;5005629;28;20211;-77
2024/01/05 03:45:56;;;;;;;1.63;0.88;;;5.40;99.90;;;;;;4999769;28;20233;-78
2024/01/05 03:48:23;;;;;;;2.67;1.50;;;5.40;99.90;;;;;;4999642;28;20211;-78
2024/01/05 03:50:51;;;;;;;1.27;1.17;;;5.50;99.90;;;;;;5000297;28;20253;-78
2024/01/05 03:53:18;;;;;;;1.02;0.93;;;5.50;99.90;;;;;;4998739;28;20242;-77
2024/01/05 03:55:44;;;;;;;0.90;0.70;;;5.50;99.90;;;;;;5000346;28;20226;-78
2024/01/05 03:58:11;;;;;;;2.95;2.08;;;5.60;99.90;;;;;;5000617;28;20211;-78
2024/01/05 04:00:38;;;;;;;1.58;0.90;;;5.60;99.90;;;;;;5000635;28;20205;-78
2024/01/05 04:03:05;;;;;;;1.00;0.80;;;5.60;99.90;;;;;;5000217;28;20211;-78
2024/01/05 04:05:32;;;;;;;1.13;0.75;;;5.70;99.90;;;;;;5000670;28;20242;-78
2024/01/05 04:08:00;;;;;;;2.05;0.90;;;5.80;99.90;;;;;;5000395;28;20700;-78
2024/01/05 04:10:27;;;;;;;2.22;1.08;;;5.80;99.90;;;;;;5000655;28;20231;-77
2024/01/05 04:12:53;;;;;;;0.80;0.80;;;5.80;99.90;;;;;;5000180;28;20601;-78
2024/01/05 04:15:20;;;;;;;1.90;1.23;;;5.90;99.90;;;;;;4999664;28;20211;-78
2024/01/05 04:17:47;;;;;;;1.65;0.80;;;5.90;99.90;;;;;;4999653;28;20211;-77
2024/01/05 04:20:14;;;;;;;1.52;1.10;;;6.00;99.90;;;;;;4998986;28;20207;-78
2024/01/05 04:22:41;;;;;;;1.45;1.10;;;6.00;99.90;;;;;;4998523;28;20237;-78
2024/01/05 04:25:09;;;;;;;1.23;0.82;;;6.10;99.90;;;;;;5000934;28;20210;-77
2024/01/05 04:27:36;;;;;;;2.90;1.08;;;6.20;99.90;;;;;;4999711;28;20207;-78
2024/01/05 04:30:03;;;;;;;2.75;1.10;;;6.20;99.90;;;;;;4998051;28;20234;-78
2024/01/05 04:32:30;;;;;;;1.80;1.05;;;6.30;99.90;;;;;;4996679;28;20235;-78
2024/01/05 04:34:57;;;;;;;1.05;0.85;;;6.30;99.90;;;;;;4996780;28;20215;-79
2024/01/05 04:37:24;;;;;;;1.30;1.05;;;6.40;99.90;;;;;;4999317;28;20673;-78
2024/01/05 04:39:50;;;;;;;0.80;0.75;;;6.40;99.90;;;;;;5000723;28;20208;-78
2024/01/05 04:42:18;;;;;;;0.98;0.85;;;6.40;99.90;;;;;;5003043;28;20290;-78
2024/01/05 04:44:45;;;;;;;1.33;1.23;;;6.30;99.90;;;;;;5003162;28;20211;-78
2024/01/05 04:47:12;;;;;;;1.20;1.10;;;6.20;99.90;;;;;;5001589;28;20203;-78
2024/01/05 04:49:39;;;;;;;2.10;1.10;;;6.30;99.90;;;;;;5001677;28;20203;-78
2024/01/05 04:52:06;;;;;;;1.00;0.90;;;6.30;99.90;;;;;;4998267;28;20231;-78
2024/01/05 04:54:33;;;;;;;2.25;1.70;;;6.30;99.90;;;;;;4999873;28;20203;-77
2024/01/05 04:57:01;;;;;;;1.45;1.23;;;6.30;99.90;;;;;;5000744;28;20272;-78
2024/01/05 04:59:29;;;;;;;6.53;1.70;;;6.30;99.90;;;;;;4999333;28;20288;-78
2024/01/05 05:01:56;;;;;;;1.00;0.70;;;6.30;99.90;;;;;;5000305;28;20229;-77
2024/01/05 05:04:23;;;;;;;1.85;0.80;;;6.20;99.90;;;;;;5000046;28;20211;-79
2024/01/05 05:06:50;;;;;;;0.80;0.75;;;6.20;99.90;;;;;;5000110;28;20680;-79
2024/01/05 05:09:16;;;;;;;1.10;0.82;;;6.20;99.90;;;;;;4999947;28;20226;-78
2024/01/05 05:11:43;;;;;;;1.15;1.05;;;6.20;99.90;;;;;;5000969;28;20852;-79
2024/01/05 05:14:10;;;;;;;3.45;1.58;;;6.20;99.90;;;;;;5002787;28;20219;-79
2024/01/05 05:16:39;;;;;;;1.00;0.82;;;6.20;99.90;;;;;;5001562;28;20207;-79
2024/01/05 05:19:06;;;;;;;1.70;1.20;;;6.10;99.90;;;;;;4996311;28;20456;-77
2024/01/05 05:21:33;;;;;;;1.40;1.08;;;6.10;99.90;;;;;;4994962;28;20212;-77
2024/01/05 05:24:00;;;;;;;2.55;1.10;;;6.10;99.90;;;;;;4994909;28;20206;-76
2024/01/05 05:26:26;;;;;;;2.92;0.70;;;6.10;99.90;;;;;;4996999;28;20577;-77
2024/01/05 05:28:53;;;;;;;1.85;0.95;;;6.10;99.90;;;;;;4994777;28;20562;-77
2024/01/05 05:31:20;;;;;;;1.10;0.80;;;6.10;99.90;;;;;;4993976;28;20604;-76
2024/01/05 05:33:48;;;;;;;1.65;1.23;;;6.10;99.90;;;;;;4992791;28;20222;-76
2024/01/05 05:36:15;;;;;;;3.38;0.95;;;6.10;99.90;;;;;;4992757;28;20211;-76
2024/01/05 05:38:42;;;;;;;2.42;1.15;;;6.10;99.90;;;;;;4992282;28;20218;-77
2024/01/05 05:41:08;;;;;;;1.35;1.00;;;6.10;99.90;;;;;;4991908;28;20238;-76
2024/01/05 05:43:35;;;;;;;1.50;1.05;;;6.10;99.90;;;;;;4992093;28;20245;-77
2024/01/05 05:46:02;;;;;;;1.33;0.80;;;6.10;99.90;;;;;;4993191;28;20584;-77
2024/01/05 05:48:29;;;;;;;2.40;0.80;;;6.10;99.90;;;;;;4994031;28;20208;-77
2024/01/05 05:50:57;;;;;;;1.15;1.05;;;6.00;99.90;;;;;;4994475;28;20247;-77
2024/01/05 05:53:24;;;;;;;1.98;1.20;;;6.00;99.90;;;;;;4994002;28;20290;-77
2024/01/05 05:55:50;;;;;;;1.33;0.95;;;6.00;99.90;;;;;;4993844;28;20672;-77
2024/01/05 05:58:17;;;;;;;0.90;0.80;;;6.00;99.90;;;;;;4994438;28;20218;-77
2024/01/05 06:00:44;;;;;;;1.45;0.88;;;6.10;99.90;;;;;;4994439;28;20285;-76
2024/01/05 06:03:11;;;;;;;2.33;1.13;;;6.10;99.90;;;;;;4993566;28;20278;-77
2024/01/05 06:05:38;;;;;;;1.70;1.13;;;6.10;99.90;;;;;;4993434;28;20238;-77
2024/01/05 06:08:06;;;;;;;1.17;0.80;;;6.10;99.90;;;;;;4992935;28;20703;-76
2024/01/05 06:10:34;;;;;;;1.10;0.80;;;6.10;99.90;;;;;;4993777;28;20230;-76
2024/01/05 06:13:02;;;;;;;1.75;0.90;;;6.10;99.90;;;;;;4993271;28;20215;-76
2024/01/05 06:15:29;;;;;;;1.33;0.80;;;6.10;99.90;;;;;;4993486;28;20203;-76
2024/01/05 06:17:56;;;;;;;1.25;1.00;;;6.20;99.90;;;;;;4993462;28;20270;-77
2024/01/05 06:20:22;;;;;;;1.25;1.10;;;6.10;99.90;;;;;;4993407;28;20588;-76
2024/01/05 06:22:49;;;;;;;0.80;0.80;;;6.10;99.90;;;;;;4993218;28;20242;-76
2024/01/05 06:25:17;;;;;;;4.20;1.05;;;6.10;99.90;;;;;;4994081;28;20587;-77
2024/01/05 06:27:44;;;;;;;1.48;0.90;;;6.10;99.90;;;;;;4995830;28;20580;-77
2024/01/05 06:30:11;;;;;;;2.85;1.00;;;6.10;99.90;;;;;;4995552;28;20676;-78
2024/01/05 06:32:38;;;;;;;0.93;0.82;;;6.10;99.90;;;;;;4997364;28;20254;-76
2024/01/05 06:35:05;;;;;;;2.40;1.10;;;6.20;99.90;;;;;;4999602;28;20265;-77
2024/01/05 06:37:32;;;;;;;1.05;0.95;;;6.20;99.90;;;;;;4999498;28;20207;-77
2024/01/05 06:39:58;;;;;;;2.85;0.73;;;6.20;99.90;;;;;;4998997;28;20223;-77
2024/01/05 06:42:26;;;;;;;0.80;0.80;;;6.20;99.90;;;;;;4998992;28;20227;-77
2024/01/05 06:44:53;;;;;;;1.10;0.98;;;6.20;99.90;;;;;;4999560;28;20470;-77
2024/01/05 06:47:19;;;;;;;0.80;0.70;;;6.20;99.90;;;;;;5000906;28;20227;-77
2024/01/05 06:49:46;;;;;;;1.35;1.20;;;6.20;99.90;;;;;;5001935;28;20210;-77
2024/01/05 06:52:13;;;;;;;3.00;0.93;;;6.20;99.90;;;;;;5001758;28;20266;-77
2024/01/05 06:54:40;;;;;;;1.52;1.30;;;6.20;99.90;;;;;;5004782;28;20211;-77
2024/01/05 06:57:07;;;;;;;0.70;0.70;;;6.20;99.90;;;;;;5004112;28;20217;-77
2024/01/05 06:59:37;;;;;;;1.50;1.25;;;6.20;99.90;;;;;;5003947;28;20230;-77
2024/01/05 07:02:04;;;;;;;2.55;1.35;;;6.20;99.90;;;;;;5004667;28;20310;-77
2024/01/05 07:04:31;;;;;;;1.25;1.08;;;6.20;99.90;;;;;;5004297;28;20234;-77
2024/01/05 07:06:58;;;;;;;3.22;1.40;;;6.30;99.90;;;;;;5004481;28;20207;-77
2024/01/05 07:09:25;;;;;;;1.27;1.17;;;6.30;99.90;;;;;;5004333;28;20210;-77
2024/01/05 07:11:53;;;;;;;1.00;0.90;;;6.30;99.90;;;;;;4996992;28;20700;-77
2024/01/05 07:14:19;;;;;;;1.17;1.08;;;6.30;99.90;;;;;;4997452;28;20211;-77
2024/01/05 07:16:48;;;;;;;1.73;1.00;;;6.20;99.90;;;;;;4997775;28;20590;-77
2024/01/05 07:19:15;;;;;;;1.23;1.10;;;6.20;99.90;;;;;;4996606;28;20562;-77
2024/01/05 07:21:43;;;;;;;1.38;1.15;;;6.10;99.90;;;;;;4996753;28;20238;-78
2024/01/05 07:24:10;;;;;;;1.10;1.00;;;6.10;99.90;;;;;;4997071;28;20211;-76
2024/01/05 07:26:37;;;;;;;1.10;1.00;;;6.10;99.90;;;;;;4996569;28;20210;-77
2024/01/05 07:29:03;;;;;;;1.17;1.08;;;6.10;99.90;;;;;;4996933;28;20207;-77
2024/01/05 07:31:31;;;;;;;2.33;1.05;;;6.10;99.90;;;;;;4996071;28;20230;-77
2024/01/05 07:33:59;;;;;;;1.60;1.10;;;6.00;99.90;;;;;;4996044;28;20215;-77
2024/01/05 07:36:25;;;;;;;4.03;1.10;;;6.00;99.90;;;;;;4989735;28;20207;-76
2024/01/05 07:38:52;;;;;;;1.23;1.00;;;6.10;99.90;;;;;;4996473;28;20210;-77
2024/01/05 07:41:19;;;;;;;5.80;1.20;;;6.10;99.90;;;;;;4996268;28;20254;-76
2024/01/05 07:43:46;;;;;;;3.78;1.20;;;6.10;99.90;;;;;;4996848;28;20215;-77
2024/01/05 07:46:13;;;;;;;1.30;1.05;;;6.10;99.90;;;;;;4996844;28;20211;-76
2024/01/05 07:48:41;;;;;;;1.42;1.23;;;6.20;99.90;;;;;;4998135;28;20202;-76
2024/01/05 07:51:10;;;;;;;1.00;0.90;;;6.20;99.90;;;;;;4997063;28;20297;-75
2024/01/05 07:53:38;;;;;;;1.50;0.98;;;6.20;99.90;;;;;;4997229;28;20567;-77
2024/01/05 07:56:05;;;;;;;2.65;1.20;;;6.30;99.90;;;;;;5005752;28;20207;-77
2024/01/05 07:58:32;;;;;;;2.75;1.15;;;6.30;99.90;;;;;;5005161;28;20254;-77
2024/01/05 08:00:59;;;;;;;1.90;1.30;;;6.30;99.90;;;;;;5003745;28;20684;-77
2024/01/05 08:03:26;;;;;;;1.70;1.20;;;6.30;99.90;;;;;;5004462;28;20223;-77
2024/01/05 08:05:52;;;;;;;1.58;1.42;;;6.30;99.90;;;;;;5000890;28;20583;-77
2024/01/05 08:08:20;;;;;;;1.00;0.90;;;6.30;99.90;;;;;;4997441;28;20211;-77
2024/01/05 08:10:47;;;;;;;4.40;0.90;;;6.30;99.90;;;;;;4997396;28;20231;-77
2024/01/05 08:13:14;;;;;;;3.10;1.30;;;6.40;99.90;;;;;;4997817;28;20223;-77
2024/01/05 08:15:41;;;;;;;1.38;1.23;;;6.40;99.90;;;;;;4997130;28;20282;-77
2024/01/05 08:18:09;;;;;;;1.30;1.10;;;6.40;99.90;;;;;;4996887;28;20207;-76
2024/01/05 08:20:35;;;;;;;0.82;0.77;;;6.50;99.90;;;;;;4996865;28;20234;-77
2024/01/05 08:23:02;;;;;;;1.30;1.20;;;6.50;99.90;;;;;;4997194;28;20207;-76
2024/01/05 08:25:30;;;;;;;2.15;1.13;;;6.60;99.90;;;;;;4998969;28;20215;-77
2024/01/05 08:27:57;;;;;;;2.22;1.10;;;6.60;99.90;;;;;;4998442;28;20209;-77
2024/01/05 08:30:24;;;;;;;1.75;1.23;;;6.70;99.90;;;;;;4997852;28;20215;-77
2024/01/05 08:32:54;;;;;;;1.58;1.20;;;6.80;99.90;;;;;;4996882;28;20235;-77
2024/01/05 08:35:21;;;;;;;1.20;1.10;;;6.90;99.90;;;;;;4998296;28;20212;-77
2024/01/05 08:37:48;;;;;;;0.80;0.80;;;7.00;99.90;;;;;;4998411;28;20226;-77
2024/01/05 08:40:14;;;;;;;1.38;1.20;;;7.10;99.90;;;;;;4997378;28;20239;-77
2024/01/05 08:42:42;;;;;;;1.00;0.85;;;7.10;99.90;;;;;;4997176;28;20290;-77
2024/01/05 08:45:10;;;;;;;2.00;1.10;;;7.10;99.90;;;;;;4997716;28;20211;-77
2024/01/05 08:47:37;;;;;;;1.83;1.50;;;7.10;99.90;;;;;;4997815;28;20783;-77
2024/01/05 08:50:05;;;;;;;1.13;1.02;;;7.00;99.90;;;;;;4996887;28;20208;-77
2024/01/05 08:52:32;;;;;;;1.95;1.17;;;7.10;99.90;;;;;;4995895;28;20231;-77
2024/01/05 08:54:59;;;;;;;1.65;0.80;;;7.10;99.90;;;;;;4996821;28;20350;-77
2024/01/05 08:57:25;;;;;;;1.50;1.40;;;7.10;99.90;;;;;;4996861;28;20673;-77
2024/01/05 08:59:53;;;;;;;1.75;0.90;;;7.20;99.90;;;;;;4995997;28;20310;-77
2024/01/05 09:02:20;;;;;;;2.03;1.25;;;7.20;99.90;;;;;;4996407;28;20219;-77
2024/01/05 09:04:47;;;;;;;1.00;0.90;;;7.20;99.90;;;;;;4996087;28;20361;-77
2024/01/05 09:07:14;;;;;;;2.65;0.88;;;7.30;99.90;;;;;;4996353;28;20208;-77
2024/01/05 09:09:41;;;;;;;1.10;0.93;;;7.30;99.90;;;;;;4995541;28;20215;-77
2024/01/05 09:12:09;;;;;;;1.63;1.10;;;7.30;99.90;;;;;;4995462;28;20239;-77
2024/01/05 09:14:36;;;;;;;2.08;1.38;;;7.30;99.90;;;;;;4995947;28;20203;-77
2024/01/05 09:17:05;;;;;;;1.33;1.00;;;7.30;99.90;;;;;;4994999;28;20565;-77
2024/01/05 09:19:32;;;;;;;1.08;0.90;;;7.30;99.90;;;;;;4996048;28;20203;-76
2024/01/05 09:21:59;;;;;;;1.63;1.10;;;7.30;99.90;;;;;;4995077;28;20239;-77
2024/01/05 09:24:26;;;;;;;1.88;0.80;;;7.30;99.90;;;;;;4996160;28;20203;-77
2024/01/05 09:26:53;;;;;;;3.88;1.13;;;7.30;99.90;;;;;;4996205;28;20254;-77
2024/01/05 09:29:20;;;;;;;2.47;1.10;;;7.30;99.90;;;;;;4995585;28;20216;-77
2024/01/05 09:31:47;;;;;;;1.35;1.10;;;7.30;99.90;;;;;;4995802;28;20227;-77
2024/01/05 09:34:16;;;;;;;0.98;0.80;;;7.40;99.90;;;;;;4996346;28;20588;-77
2024/01/05 09:36:43;;;;;;;1.30;1.20;;;7.40;99.90;;;;;;4996918;28;20617;-77
2024/01/05 09:39:12;;;;;;;1.45;1.25;;;7.50;99.90;;;;;;4995589;28;20218;-77
2024/01/05 09:41:40;;;;;;;2.75;1.08;;;7.50;99.90;;;;;;4994832;28;20319;-77
2024/01/05 09:44:08;;;;;;;1.45;1.30;;;7.70;99.90;;;;;;4995523;28;20212;-78
2024/01/05 09:46:38;;;;;;;1.00;0.90;;;8.00;99.90;;;;;;4995722;28;20274;-77
2024/01/05 09:49:08;;;;;;;4.72;1.60;;;8.00;99.90;;;;;;4995203;28;20323;-77
2024/01/05 09:51:37;;;;;;;1.67;1.33;;;8.10;99.90;;;;;;4995085;28;20287;-77
2024/01/05 09:54:04;;;;;;;2.70;1.75;;;8.30;99.90;;;;;;4995120;28;20237;-77
2024/01/05 09:56:32;;;;;;;1.23;1.13;;;8.60;99.90;;;;;;4995957;28;20230;-77
2024/01/05 09:58:59;;;;;;;1.10;0.95;;;9.00;99.90;;;;;;4994117;28;20674;-79
2024/01/05 10:01:27;;;;;;;2.75;1.20;;;9.30;99.90;;;;;;4995387;28;20229;-76
2024/01/05 10:03:55;;;;;;;2.05;1.10;;;9.60;99.90;;;;;;4992962;28;20214;-77
2024/01/05 10:06:21;;;;;;;5.63;1.23;;;9.60;99.90;;;;;;4992066;28;20210;-77
2024/01/05 10:08:52;;;;;;;2.30;1.63;;;9.50;99.90;;;;;;4992371;28;20215;-77
2024/01/05 10:11:28;;;;;;;1.80;1.33;;;9.30;99.90;;;;;;4992277;28;20265;-77
2024/01/05 10:13:57;;;;;;;1.20;1.10;;;9.00;99.90;;;;;;4993339;28;20271;-77
2024/01/05 10:16:27;;;;;;;1.65;1.17;;;8.90;99.90;;;;;;4992355;28;20205;-77
2024/01/05 10:18:54;;;;;;;1.92;1.23;;;8.80;99.90;;;;;;4991496;28;20287;-76
2024/01/05 10:21:23;;;;;;;5.50;1.60;;;8.50;99.90;;;;;;4991885;28;20713;-77
2024/01/05 10:23:52;;;;;;;2.08;1.48;;;8.40;99.90;;;;;;4992196;28;20591;-77
2024/01/05 10:26:20;;;;;;;1.73;1.40;;;8.50;99.90;;;;;;4993673;28;20218;-77
2024/01/05 10:28:48;;;;;;;2.75;1.50;;;8.40;99.90;;;;;;4993640;28;20296;-77
2024/01/05 10:31:16;;;;;;;4.72;1.20;;;8.40;99.90;;;;;;4993590;28;20231;-77
2024/01/05 10:33:51;;;;;;;1.75;1.45;;;8.30;99.90;;;;;;4994269;28;20279;-77
2024/01/05 10:36:21;;;;;;;2.85;1.25;;;8.20;99.90;;;;;;4988784;28;20267;-77
2024/01/05 10:38:48;;;;;;;1.00;0.88;;;8.30;99.90;;;;;;4993616;28;20601;-77
2024/01/05 10:41:18;;;;;;;1.40;1.15;;;8.40;99.90;;;;;;4992985;28;20680;-77
2024/01/05 10:43:46;;;;;;;3.30;1.40;;;8.50;99.90;;;;;;4993236;28;20220;-77
2024/01/05 10:46:14;;;;;;;1.15;1.05;;;8.60;99.90;;;;;;4992869;28;20224;-77
2024/01/05 10:48:41;;;;;;;4.70;2.10;;;8.80;99.90;;;;;;4993333;28;20319;-77
2024/01/05 10:51:08;;;;;;;1.70;1.15;;;9.00;99.90;;;;;;4993247;28;20235;-77
2024/01/05 10:53:35;;;;;;;1.80;0.95;;;9.10;99.90;;;;;;4993968;28;20229;-77
2024/01/05 10:56:03;;;;;;;1.60;1.40;;;9.20;99.90;;;;;;4988871;28;20218;-77
2024/01/05 10:58:31;;;;;;;1.40;1.30;;;9.30;99.90;;;;;;4970652;28;20222;-76
2024/01/05 11:01:01;;;;;;;1.27;1.08;;;9.40;99.90;;;;;;4992686;28;20226;-77
2024/01/05 11:03:35;;;;;;;2.75;1.20;;;9.40;99.90;;;;;;4998812;28;20210;-77
2024/01/05 11:06:08;;;;;;;2.80;1.05;;;9.40;99.90;;;;;;4999611;28;20216;-77
2024/01/05 11:08:43;;;;;;;2.00;1.30;;;9.40;99.90;;;;;;4995893;28;20265;-77
2024/01/05 11:11:21;;;;;;;3.63;1.98;;;9.30;99.90;;;;;;4995006;28;20230;-77
2024/01/05 11:14:07;;;;;;;1.42;1.00;;;9.30;99.90;;;;;;4996068;28;20221;-78
2024/01/05 11:17:07;;;;;;;1.30;0.95;;;9.40;99.90;;;;;;4994091;28;20581;-77
2024/01/05 11:20:16;;;;;;;1.30;1.20;;;9.20;99.90;;;;;;4987386;28;20689;-77
2024/01/05 11:22:47;;;;;;;1.77;1.67;;;9.20;99.90;;;;;;4981564;28;20222;-77
2024/01/05 11:25:15;;;;;;;7.30;2.20;;;9.10;99.90;;;;;;4992425;28;20214;-77
2024/01/05 11:27:46;;;;;;;2.25;1.38;;;9.30;99.90;;;;;;4990733;28;20213;-77
2024/01/05 11:30:14;;;;;;;1.60;1.50;;;9.30;99.90;;;;;;4991565;28;20217;-77
2024/01/05 11:32:44;;;;;;;2.15;1.92;;;9.30;99.90;;;;;;4992033;28;20233;-77
2024/01/05 11:35:51;;;;;;;1.10;0.90;;;9.20;99.90;;;;;;4989996;28;20644;-77
2024/01/05 11:38:30;;;;;;;0.93;0.82;;;9.20;99.90;;;;;;4990907;28;20213;-77
2024/01/05 11:40:57;;;;;;;1.67;1.38;;;9.10;99.90;;;;;;4993745;28;20737;-76
2024/01/05 11:43:35;;;;;;;1.95;1.30;;;9.10;99.90;;;;;;4997601;28;20213;-77
2024/01/05 11:46:03;;;;;;;2.55;1.48;;;9.00;99.90;;;;;;4998428;28;20216;-77
2024/01/05 11:48:50;;;;;;;2.13;1.40;;;9.00;99.90;;;;;;4998396;28;20210;-77
2024/01/05 11:51:18;;;;;;;3.83;1.65;;;9.00;99.90;;;;;;4993085;28;20234;-78
2024/01/05 11:53:46;;;;;;;3.42;1.30;;;9.00;99.90;;;;;;4997661;28;20225;-77
2024/01/05 11:56:17;;;;;;;1.80;1.58;;;8.90;99.90;;;;;;4995084;28;20214;-77
2024/01/05 11:58:46;;;;;;;2.35;1.15;;;9.00;99.90;;;;;;4994695;28;20217;-77
2024/01/05 12:01:16;;;;;;;4.53;1.63;;;9.00;99.90;;;;;;4993670;28;20235;-77
2024/01/05 12:03:43;;;;;;;1.20;1.10;;;9.00;99.90;;;;;;4996148;28;20202;-77
2024/01/05 12:06:11;;;;;;;3.17;1.90;;;9.00;99.90;;;;;;4994454;28;20237;-77
2024/01/05 12:08:38;;;;;;;2.42;1.50;;;9.10;99.90;;;;;;4994491;28;20218;-77
2024/01/05 12:11:08;;;;;;;1.65;1.45;;;9.10;99.90;;;;;;4994666;28;20234;-77
2024/01/05 12:13:36;;;;;;;1.80;1.40;;;9.10;99.90;;;;;;4996016;28;20231;-78
2024/01/05 12:16:04;;;;;;;1.58;1.48;;;9.10;99.90;;;;;;5003150;28;20246;-78
2024/01/05 12:18:34;;;;;;;1.75;1.50;;;9.10;99.90;;;;;;5004740;28;20225;-78
2024/01/05 12:21:02;;;;;;;2.30;1.40;;;9.00;99.90;;;;;;4999165;28;20330;-83
2024/01/05 12:23:30;;;;;;;1.48;1.20;;;9.00;99.90;;;;;;5000877;28;20212;-86
2024/01/05 12:26:00;;;;;;;2.22;1.40;;;9.00;99.90;;;;;;4996671;28;20301;-78
2024/01/05 12:28:29;;;;;;;1.60;1.10;;;8.90;99.90;;;;;;4995611;28;20208;-76
2024/01/05 12:30:57;;;;;;;2.05;1.35;;;8.80;99.90;;;;;;4993615;28;20226;-76
2024/01/05 12:33:24;;;;;;;2.60;1.25;;;8.80;99.90;;;;;;4993572;28;20580;-76
2024/01/05 12:35:53;;;;;;;1.55;0.98;;;8.70;99.90;;;;;;4997773;28;20233;-79
2024/01/05 12:38:26;;;;;;;1.30;1.10;;;8.70;99.90;;;;;;4996190;28;20225;-76
2024/01/05 12:40:53;;;;;;;1.45;1.20;;;8.70;99.90;;;;;;4993544;28;20232;-76
2024/01/05 12:43:20;;;;;;;4.28;1.70;;;8.70;99.90;;;;;;4994045;28;20211;-78
2024/01/05 12:45:49;;;;;;;3.00;1.55;;;8.60;99.90;;;;;;4996011;28;20209;-77
2024/01/05 12:48:17;;;;;;;5.30;1.58;;;8.60;99.90;;;;;;4995319;28;20236;-77
2024/01/05 12:50:44;;;;;;;1.38;1.20;;;8.70;99.90;;;;;;4992546;28;20206;-76
2024/01/05 12:53:19;;;;;;;3.50;1.30;;;8.70;99.90;;;;;;4992960;28;20316;-73
2024/01/05 12:55:46;;;;;;;1.95;1.42;;;8.70;99.90;;;;;;4994543;28;20207;-74
2024/01/05 12:58:12;;;;;;;2.35;1.15;;;8.80;99.90;;;;;;4992952;28;20205;-77
2024/01/05 13:00:43;;;;;;;1.60;1.48;;;8.70;99.90;;;;;;4993368;28;20217;-77
2024/01/05 13:03:16;;;;;;;1.70;1.20;;;8.80;99.90;;;;;;4992535;28;20203;-77